Terminal Aerodrome Forecast
Issued by NWS La Crosse, WI

Home | Current Version | Previous Version | Text Only | Print | Product List | Glossary On
Versions: 1 2 3 4 5 6 7 8 9 10 11 12 13 14 15 16 17 18 19 20 21 22 23 24 25 26 27 28 29 30 31 32 33 34 35 36 37 38 39 40 41 42 43 44 45 46
000
FTUS43 KARX 221504 AAA
TAFLSE
TAF AMD
KLSE 221504Z 2215/2312 VRB03KT 5SM HZ BKN005
     FM221730 32005KT P6SM SCT006 BKN200
     FM221830 32005KT P6SM SCT040
     FM230800 VRB03KT 1SM BR OVC003
      TEMPO 2308/2312 1/2SM FG OVC001=

USA.gov is the U.S. government's official web portal to all federal, state and local government web resources and services.